Jessore, Bangladesh

6:44 AM BDT on April 19, 2015 (GMT +0600)
Netaji Subhash Chandra Bose International | | Change Station
CLOSE
Current Station
Airport
Location: Kolkata,
Elevation: 20 ft
Nearby Weather Stations

Elev 20 ft 22.65 °N, 88.44 °E | Updated 24 minutes ago

Haze
Haze
82 °F
Feels Like 90 °F
N
12
Wind Variable Wind from SSW

Today
High -- | Low -- °F
--% Chance of Precip.
Yesterday
High -- | Low -- °F
Precip. -- in
5:39 AM 6:25 PM
New Moon, 0% visible
Pressure 29.68 in
Visibility 2.5 miles
Clouds Few 2000 ft
Heat Index 90 °F
Dew Point 75 °F
Humidity 79%
Rainfall 0.00 in
Snow Depth Not available.
UV 0 out of 12
Pollen Not available.
Air Quality Not available.
Flu Activity Not available.
METAR VECC 190020Z 20010KT 4000 HZ FEW020 28/24 Q1005 NOSIG

More Conditions Fewer Conditions

Pressure 29.68 in
Visibility 2.5 miles
Clouds Few 2000 ft
Heat Index 90 °F
Dew Point 75 °F
Humidity 79%
Rainfall 0.00 in
Snow Depth Not available.
UV 0 out of 12
Pollen Not available.
Air Quality Not available.
Flu Activity Not available.
METAR VECC 190020Z 20010KT 4000 HZ FEW020 28/24 Q1005 NOSIG

More Conditions Fewer Conditions

10-Day Weather Forecast

Almanac

Astronomy

Apr. 19, 2015 Rise Set
Actual Time
Civil Twilight
Nautical Twilight
Astronomical Twilight
Moon
Length of Visible Light
Length of Day
Tomorrow will be .
, % of the Moon is Illuminated

Today's Extremes

Country Highs Country Lows

Community

WunderPhotos

Upload Photos

1,814,598 photos uploaded!

WunderBlogs® & News

Nearby

Air Quality

  Air Quality AQ Index Pollutant
Not available.

Snow Depth

Station Depth Elevation

Earthquake Activity

City Distance Mag. Time & Date
Minimum magnitude displayed is 2.5.

Coastal Water Temperatures

Place Temperature

Stations

Nearby Weather Stations

Station Location Temp. Windchill Dew Point Humidity Wind Precip. Elev Updated Type